createdAt,value
2017-07-22T00:00:01.744Z,14.2
2017-07-22T00:05:02.081Z,14.2
2017-07-22T00:10:01.792Z,14.1
2017-07-22T00:15:01.334Z,14.1
2017-07-22T00:20:02.121Z,14.1
2017-07-22T00:25:01.683Z,14
2017-07-22T00:30:01.477Z,14
2017-07-22T00:35:01.767Z,14
2017-07-22T00:40:01.479Z,14
2017-07-22T00:45:01.989Z,14
2017-07-22T00:50:01.753Z,14
2017-07-22T00:55:01.230Z,13.9
2017-07-22T01:00:02.100Z,14
2017-07-22T01:05:02.163Z,14
2017-07-22T01:10:01.926Z,14
2017-07-22T01:15:02.048Z,13.9
2017-07-22T01:20:01.779Z,13.9
2017-07-22T01:25:01.262Z,13.9
2017-07-22T01:30:02.080Z,14
2017-07-22T01:35:02.140Z,14
2017-07-22T01:40:01.864Z,14
2017-07-22T01:45:01.237Z,14
2017-07-22T01:50:02.091Z,14.1
2017-07-22T01:55:01.470Z,14.3
2017-07-22T02:00:01.312Z,14.3
2017-07-22T02:05:01.497Z,14.4
2017-07-22T02:10:01.304Z,14.5
2017-07-22T02:15:01.606Z,14.5
2017-07-22T02:20:01.620Z,15
2017-07-22T02:25:02.057Z,15
2017-07-22T02:30:01.239Z,15
2017-07-22T02:35:01.587Z,15
2017-07-22T02:40:02.004Z,15
2017-07-22T02:45:01.288Z,15
2017-07-22T02:50:01.215Z,15
2017-07-22T02:55:01.727Z,15
2017-07-22T03:00:01.839Z,15
2017-07-22T03:05:01.635Z,15
2017-07-22T03:10:01.417Z,15
2017-07-22T03:15:02.047Z,15
2017-07-22T03:20:01.793Z,15
2017-07-22T03:25:01.810Z,15
2017-07-22T03:30:01.879Z,15.6
2017-07-22T03:35:01.351Z,15.7
2017-07-22T03:40:02.168Z,15.8
2017-07-22T03:45:01.180Z,16.2
2017-07-22T03:50:01.956Z,16.4
2017-07-22T03:55:01.440Z,16.4
2017-07-22T04:00:01.503Z,16.6
2017-07-22T04:05:02.174Z,16.8
2017-07-22T04:10:01.924Z,16.8
2017-07-22T04:15:01.517Z,16.9
2017-07-22T04:20:01.506Z,16.9
2017-07-22T04:25:01.982Z,17
2017-07-22T04:30:01.243Z,17.1
2017-07-22T04:35:02.079Z,17.2
2017-07-22T04:40:01.886Z,17.2
2017-07-22T04:45:02.142Z,17.2
2017-07-22T04:50:01.814Z,17.2
2017-07-22T04:55:01.735Z,17.2
2017-07-22T05:00:01.694Z,17.2
2017-07-22T05:05:01.592Z,17.2
2017-07-22T05:10:01.672Z,17.4
2017-07-22T05:15:01.564Z,17.5
2017-07-22T05:20:01.325Z,17.6
2017-07-22T05:25:01.564Z,17.6
2017-07-22T05:30:01.560Z,17.6
2017-07-22T05:35:01.417Z,17.6
2017-07-22T05:40:01.346Z,17.6
2017-07-22T05:45:01.335Z,17.6
2017-07-22T05:50:01.215Z,17.4
2017-07-22T05:55:02.013Z,17.4
2017-07-22T06:00:02.006Z,17.4
2017-07-22T06:05:01.880Z,17.4
2017-07-22T06:10:01.837Z,17.4
2017-07-22T06:15:01.275Z,17.4
2017-07-22T06:20:01.980Z,17.4
2017-07-22T06:25:01.397Z,17.5
2017-07-22T06:30:01.776Z,17.5
2017-07-22T06:35:01.509Z,17.6
2017-07-22T06:40:01.286Z,17.6
2017-07-22T06:45:02.008Z,17.6
2017-07-22T06:50:01.914Z,17.6
2017-07-22T06:55:01.225Z,17.6
2017-07-22T07:00:01.312Z,17.8
2017-07-22T07:05:01.961Z,18
2017-07-22T07:10:01.980Z,18
2017-07-22T07:15:01.554Z,18
2017-07-22T07:20:01.290Z,18.1
2017-07-22T07:25:01.542Z,18.1
2017-07-22T07:30:01.539Z,18.1
2017-07-22T07:35:01.442Z,18.1
2017-07-22T07:40:02.192Z,18.1
2017-07-22T07:45:01.346Z,18.4
2017-07-22T07:50:01.364Z,18.6
2017-07-22T07:55:01.916Z,19
2017-07-22T08:00:01.968Z,19
2017-07-22T08:05:02.164Z,19.1
2017-07-22T08:10:01.312Z,19.2
2017-07-22T08:15:01.879Z,19.2
2017-07-22T08:20:01.586Z,19.2
2017-07-22T08:25:01.888Z,19.3
2017-07-22T08:30:01.869Z,19.3
2017-07-22T08:35:01.584Z,19.3
2017-07-22T08:40:01.386Z,19.2
2017-07-22T08:45:02.247Z,19.2
2017-07-22T08:50:01.238Z,19.2
2017-07-22T08:55:01.589Z,19.2
2017-07-22T09:00:01.703Z,19
2017-07-22T09:05:02.101Z,19.1
2017-07-22T09:10:01.891Z,19.1
2017-07-22T09:15:01.298Z,19.1
2017-07-22T09:20:02.130Z,19.1
2017-07-22T09:25:01.348Z,19.1
2017-07-22T09:30:01.710Z,19.2
2017-07-22T09:35:01.803Z,19.2
2017-07-22T09:40:01.481Z,19.2
2017-07-22T09:45:01.212Z,19.2
2017-07-22T09:50:02.172Z,19.3
2017-07-22T09:55:02.065Z,19.3
2017-07-22T10:00:01.416Z,19.3
2017-07-22T10:05:01.522Z,19.3
2017-07-22T10:10:01.429Z,19.3
2017-07-22T10:15:02.131Z,19.3
2017-07-22T10:20:02.127Z,19.4
2017-07-22T10:25:02.053Z,19.4
2017-07-22T10:30:01.344Z,19.4
2017-07-22T10:35:01.717Z,19.3
2017-07-22T10:40:01.525Z,19.3
2017-07-22T10:45:01.335Z,19.3
2017-07-22T10:50:01.334Z,19.2
2017-07-22T10:55:01.526Z,19.1
2017-07-22T11:00:01.909Z,19.1
2017-07-22T11:05:02.139Z,19.1
2017-07-22T11:10:01.873Z,18.8
2017-07-22T11:15:02.127Z,18.8
2017-07-22T11:20:01.854Z,18.7
2017-07-22T11:25:02.057Z,18.7
2017-07-22T11:30:01.839Z,18.5
2017-07-22T11:35:01.388Z,18.4
2017-07-22T11:40:01.239Z,18.4
2017-07-22T11:45:01.796Z,18.2
2017-07-22T11:50:01.696Z,18.2
2017-07-22T11:55:01.467Z,18.2
2017-07-22T12:00:01.722Z,18.1
2017-07-22T12:05:02.030Z,18.1
2017-07-22T12:10:01.918Z,18.1
2017-07-22T12:15:01.530Z,18.1
2017-07-22T12:20:01.203Z,18.1
2017-07-22T12:25:02.079Z,18.1
2017-07-22T12:30:01.309Z,18.1
2017-07-22T12:35:01.765Z,18.1
2017-07-22T12:40:01.461Z,18.1
2017-07-22T12:45:01.841Z,18.2
2017-07-22T12:50:01.717Z,18.1
2017-07-22T12:55:01.505Z,18.2
2017-07-22T13:00:01.752Z,18.1
2017-07-22T13:05:01.670Z,18.2
2017-07-22T13:10:01.589Z,18.2
2017-07-22T13:15:01.431Z,18.2
2017-07-22T13:20:02.160Z,18.3
2017-07-22T13:25:01.189Z,18.3
2017-07-22T13:30:01.538Z,18.2
2017-07-22T13:35:01.774Z,18.2
2017-07-22T13:40:01.479Z,18.2
2017-07-22T13:45:01.442Z,18.2
2017-07-22T13:50:01.332Z,18.2
2017-07-22T13:55:02.005Z,18.3
2017-07-22T14:00:01.272Z,18.3
2017-07-22T14:05:01.689Z,18.2
2017-07-22T14:10:01.971Z,18.2
2017-07-22T14:15:02.130Z,18.2
2017-07-22T14:20:01.848Z,18.2
2017-07-22T14:25:02.006Z,18.3
2017-07-22T14:30:02.015Z,18.3
2017-07-22T14:35:01.436Z,18.2
2017-07-22T14:40:01.275Z,18.2
2017-07-22T14:45:01.315Z,18.2
2017-07-22T14:50:01.272Z,18.2
2017-07-22T14:55:01.272Z,18.2
2017-07-22T15:00:01.492Z,18.2
2017-07-22T15:05:01.211Z,18.2
2017-07-22T15:10:02.039Z,18.2
2017-07-22T15:15:01.613Z,18.2
2017-07-22T15:20:01.368Z,18.2
2017-07-22T15:25:01.551Z,18.3
2017-07-22T15:30:01.517Z,18.3
2017-07-22T15:35:01.383Z,18.3
2017-07-22T15:40:01.274Z,18.3
2017-07-22T15:45:01.840Z,18.4
2017-07-22T15:50:01.797Z,18.4
2017-07-22T15:55:01.278Z,18.4
2017-07-22T16:00:01.201Z,18.4
2017-07-22T16:05:01.363Z,18.4
2017-07-22T16:10:02.156Z,18.3
2017-07-22T16:15:01.993Z,18.3
2017-07-22T16:20:01.634Z,18.3
2017-07-22T16:25:02.055Z,18.3
2017-07-22T16:30:02.180Z,18.3
2017-07-22T16:35:01.681Z,18.4
2017-07-22T16:40:01.419Z,18.3
2017-07-22T16:45:01.335Z,18.3
2017-07-22T16:50:01.284Z,18.3
2017-07-22T16:55:01.455Z,18.3
2017-07-22T17:00:01.550Z,18.3
2017-07-22T17:05:01.336Z,18.3
2017-07-22T17:10:02.184Z,18.3
2017-07-22T17:15:01.827Z,18.2
2017-07-22T17:20:01.477Z,18.2
2017-07-22T17:25:01.995Z,18.2
2017-07-22T17:30:02.000Z,18.2
2017-07-22T17:35:01.941Z,18.1
2017-07-22T17:40:01.695Z,18.1
2017-07-22T17:45:02.105Z,18.1
2017-07-22T17:50:02.051Z,18.1
2017-07-22T17:55:01.791Z,17.9
2017-07-22T18:00:01.854Z,17.9
2017-07-22T18:05:02.200Z,17.7
2017-07-22T18:10:01.375Z,17.7
2017-07-22T18:15:01.633Z,17.7
2017-07-22T18:20:01.352Z,17.7
2017-07-22T18:25:02.176Z,17.7
2017-07-22T18:30:02.167Z,17.7
2017-07-22T18:35:01.687Z,17.7
2017-07-22T18:40:01.452Z,17.1
2017-07-22T18:45:01.706Z,17
2017-07-22T18:50:01.585Z,17
2017-07-22T18:55:01.803Z,17
2017-07-22T19:00:01.817Z,17
2017-07-22T19:05:01.325Z,16.9
2017-07-22T19:10:02.127Z,16.8
2017-07-22T19:15:01.489Z,16.8
2017-07-22T19:20:01.709Z,16.8
2017-07-22T19:25:01.586Z,16.8
2017-07-22T19:30:01.651Z,16.7
2017-07-22T19:35:01.742Z,16.6
2017-07-22T19:40:01.495Z,16.6
2017-07-22T19:45:01.465Z,16.6
2017-07-22T19:50:01.201Z,16.5
2017-07-22T19:55:01.489Z,16.5
2017-07-22T20:00:01.680Z,16.5
2017-07-22T20:05:01.477Z,16.5
2017-07-22T20:10:01.254Z,16.6
2017-07-22T20:15:02.087Z,16.6
2017-07-22T20:20:01.946Z,16.6
2017-07-22T20:25:01.613Z,16.7
2017-07-22T20:30:01.647Z,16.7
2017-07-22T20:35:01.674Z,16.7
2017-07-22T20:40:01.487Z,16.8
2017-07-22T20:45:02.030Z,16.8
2017-07-22T20:50:01.755Z,16.8
2017-07-22T20:55:01.577Z,16.8
2017-07-22T21:00:01.634Z,16.8
2017-07-22T21:05:01.394Z,16.8
2017-07-22T21:10:02.122Z,16.9
2017-07-22T21:15:01.948Z,16.9
2017-07-22T21:20:01.886Z,16.9
2017-07-22T21:25:01.536Z,16.9
2017-07-22T21:30:01.640Z,17
2017-07-22T21:35:01.489Z,17
2017-07-22T21:40:01.312Z,17
2017-07-22T21:45:02.065Z,17
2017-07-22T21:50:01.801Z,17
2017-07-22T21:55:01.758Z,17
2017-07-22T22:00:01.852Z,17
2017-07-22T22:05:01.372Z,17.1
2017-07-22T22:10:02.079Z,17.1
2017-07-22T22:15:02.137Z,17.1
2017-07-22T22:20:02.059Z,17.2
2017-07-22T22:25:01.201Z,17.2
2017-07-22T22:30:01.925Z,17.2
2017-07-22T22:35:01.837Z,17.3
2017-07-22T22:40:01.684Z,17.3
2017-07-22T22:45:01.398Z,17.3
2017-07-22T22:50:02.106Z,17.3
2017-07-22T22:55:01.730Z,17.3
2017-07-22T23:00:01.540Z,17.4
2017-07-22T23:05:01.491Z,17.4
2017-07-22T23:10:01.182Z,17.4
2017-07-22T23:15:01.262Z,17.4
2017-07-22T23:20:01.982Z,17.5
2017-07-22T23:25:01.853Z,17.5
2017-07-22T23:30:01.599Z,17.5
2017-07-22T23:35:01.962Z,17.5
2017-07-22T23:40:01.727Z,17.5
2017-07-22T23:45:01.919Z,17.5
2017-07-22T23:50:01.786Z,17.6
2017-07-22T23:55:02.156Z,17.6
